sensor_id;sensor_type;location;lat;lon;timestamp;P1;durP1;ratioP1;P2;durP2;ratioP2
14348;SDS011;7258;50.376;8.742;2022-08-05T00:01:59;7.55;;;2.97;;
14348;SDS011;7258;50.376;8.742;2022-08-05T00:04:11;4.93;;;2.80;;
14348;SDS011;7258;50.376;8.742;2022-08-05T00:06:15;6.55;;;2.80;;
14348;SDS011;7258;50.376;8.742;2022-08-05T00:08:32;8.18;;;3.25;;
14348;SDS011;7258;50.376;8.742;2022-08-05T00:10:36;4.55;;;3.00;;
14348;SDS011;7258;50.376;8.742;2022-08-05T00:12:40;7.35;;;2.80;;
14348;SDS011;7258;50.376;8.742;2022-08-05T00:14:57;4.78;;;2.78;;
14348;SDS011;7258;50.376;8.742;2022-08-05T00:17:21;8.80;;;3.20;;
14348;SDS011;7258;50.376;8.742;2022-08-05T00:19:26;7.03;;;2.75;;
14348;SDS011;7258;50.376;8.742;2022-08-05T00:21:44;7.53;;;2.95;;
14348;SDS011;7258;50.376;8.742;2022-08-05T00:23:47;11.13;;;3.10;;
14348;SDS011;7258;50.376;8.742;2022-08-05T00:26:05;11.57;;;4.22;;
14348;SDS011;7258;50.376;8.742;2022-08-05T00:28:09;17.02;;;3.20;;
14348;SDS011;7258;50.376;8.742;2022-08-05T00:30:12;9.27;;;3.17;;
14348;SDS011;7258;50.376;8.742;2022-08-05T00:32:15;8.98;;;3.20;;
14348;SDS011;7258;50.376;8.742;2022-08-05T00:34:19;10.10;;;3.25;;
14348;SDS011;7258;50.376;8.742;2022-08-05T00:36:42;6.80;;;3.05;;
14348;SDS011;7258;50.376;8.742;2022-08-05T00:39:05;5.75;;;3.50;;
14348;SDS011;7258;50.376;8.742;2022-08-05T00:41:14;5.55;;;3.33;;
14348;SDS011;7258;50.376;8.742;2022-08-05T00:43:48;4.13;;;2.90;;
14348;SDS011;7258;50.376;8.742;2022-08-05T00:45:51;11.50;;;3.03;;
14348;SDS011;7258;50.376;8.742;2022-08-05T00:47:54;10.20;;;3.67;;
14348;SDS011;7258;50.376;8.742;2022-08-05T00:50:07;6.97;;;3.50;;
14348;SDS011;7258;50.376;8.742;2022-08-05T00:52:11;5.72;;;3.40;;
14348;SDS011;7258;50.376;8.742;2022-08-05T00:54:17;5.47;;;3.40;;
14348;SDS011;7258;50.376;8.742;2022-08-05T00:56:20;7.72;;;3.85;;
14348;SDS011;7258;50.376;8.742;2022-08-05T00:58:24;10.88;;;3.97;;
14348;SDS011;7258;50.376;8.742;2022-08-05T01:00:28;8.50;;;3.97;;
14348;SDS011;7258;50.376;8.742;2022-08-05T01:02:33;5.80;;;4.00;;
14348;SDS011;7258;50.376;8.742;2022-08-05T01:04:36;5.85;;;3.97;;
14348;SDS011;7258;50.376;8.742;2022-08-05T01:06:43;18.42;;;6.53;;
14348;SDS011;7258;50.376;8.742;2022-08-05T01:08:52;25.30;;;8.10;;
14348;SDS011;7258;50.376;8.742;2022-08-05T01:10:57;14.50;;;5.95;;
14348;SDS011;7258;50.376;8.742;2022-08-05T01:13:05;14.43;;;6.13;;
14348;SDS011;7258;50.376;8.742;2022-08-05T01:15:28;17.05;;;6.78;;
14348;SDS011;7258;50.376;8.742;2022-08-05T01:17:38;16.75;;;8.98;;
14348;SDS011;7258;50.376;8.742;2022-08-05T01:19:54;17.17;;;9.20;;
14348;SDS011;7258;50.376;8.742;2022-08-05T01:22:20;15.13;;;10.48;;
14348;SDS011;7258;50.376;8.742;2022-08-05T01:24:35;21.73;;;12.50;;
14348;SDS011;7258;50.376;8.742;2022-08-05T01:26:53;21.58;;;12.90;;
14348;SDS011;7258;50.376;8.742;2022-08-05T01:29:24;23.35;;;15.40;;
14348;SDS011;7258;50.376;8.742;2022-08-05T01:31:36;33.72;;;20.25;;
14348;SDS011;7258;50.376;8.742;2022-08-05T01:33:46;23.90;;;14.45;;
14348;SDS011;7258;50.376;8.742;2022-08-05T01:35:54;29.17;;;16.27;;
14348;SDS011;7258;50.376;8.742;2022-08-05T01:38:02;13.57;;;10.63;;
14348;SDS011;7258;50.376;8.742;2022-08-05T01:40:07;14.52;;;9.82;;
14348;SDS011;7258;50.376;8.742;2022-08-05T01:42:11;13.50;;;9.57;;
14348;SDS011;7258;50.376;8.742;2022-08-05T01:44:16;14.55;;;9.45;;
14348;SDS011;7258;50.376;8.742;2022-08-05T01:46:26;12.90;;;8.52;;
14348;SDS011;7258;50.376;8.742;2022-08-05T01:48:43;13.50;;;8.07;;
14348;SDS011;7258;50.376;8.742;2022-08-05T01:50:50;8.35;;;7.38;;
14348;SDS011;7258;50.376;8.742;2022-08-05T01:52:55;7.80;;;6.97;;
14348;SDS011;7258;50.376;8.742;2022-08-05T01:55:03;10.30;;;9.02;;
14348;SDS011;7258;50.376;8.742;2022-08-05T01:57:09;11.68;;;7.47;;
14348;SDS011;7258;50.376;8.742;2022-08-05T01:59:33;9.10;;;7.20;;
14348;SDS011;7258;50.376;8.742;2022-08-05T02:01:39;12.85;;;8.82;;
14348;SDS011;7258;50.376;8.742;2022-08-05T02:03:44;10.35;;;7.78;;
14348;SDS011;7258;50.376;8.742;2022-08-05T02:05:50;13.32;;;9.48;;
14348;SDS011;7258;50.376;8.742;2022-08-05T02:08:01;13.70;;;8.13;;
14348;SDS011;7258;50.376;8.742;2022-08-05T02:10:04;12.77;;;9.02;;
14348;SDS011;7258;50.376;8.742;2022-08-05T02:12:09;15.65;;;9.88;;
14348;SDS011;7258;50.376;8.742;2022-08-05T02:14:19;9.90;;;8.90;;
14348;SDS011;7258;50.376;8.742;2022-08-05T02:16:33;14.23;;;10.65;;
14348;SDS011;7258;50.376;8.742;2022-08-05T02:18:48;17.35;;;10.98;;
14348;SDS011;7258;50.376;8.742;2022-08-05T02:20:56;15.90;;;12.77;;
14348;SDS011;7258;50.376;8.742;2022-08-05T02:23:04;19.30;;;13.43;;
14348;SDS011;7258;50.376;8.742;2022-08-05T02:25:13;17.63;;;13.27;;
14348;SDS011;7258;50.376;8.742;2022-08-05T02:27:22;16.35;;;13.65;;
14348;SDS011;7258;50.376;8.742;2022-08-05T02:29:45;17.15;;;12.75;;
14348;SDS011;7258;50.376;8.742;2022-08-05T02:32:01;16.42;;;12.07;;
14348;SDS011;7258;50.376;8.742;2022-08-05T02:34:07;16.15;;;11.43;;
14348;SDS011;7258;50.376;8.742;2022-08-05T02:36:12;14.98;;;13.18;;
14348;SDS011;7258;50.376;8.742;2022-08-05T02:38:17;17.70;;;12.65;;
14348;SDS011;7258;50.376;8.742;2022-08-05T02:40:25;18.08;;;14.70;;
14348;SDS011;7258;50.376;8.742;2022-08-05T02:42:28;14.55;;;13.07;;
14348;SDS011;7258;50.376;8.742;2022-08-05T02:44:36;18.27;;;14.85;;
14348;SDS011;7258;50.376;8.742;2022-08-05T02:46:43;16.05;;;13.65;;
14348;SDS011;7258;50.376;8.742;2022-08-05T02:49:00;17.23;;;12.43;;
14348;SDS011;7258;50.376;8.742;2022-08-05T02:51:05;11.80;;;9.77;;
14348;SDS011;7258;50.376;8.742;2022-08-05T02:53:09;12.48;;;10.68;;
14348;SDS011;7258;50.376;8.742;2022-08-05T02:55:19;13.65;;;10.52;;
14348;SDS011;7258;50.376;8.742;2022-08-05T02:57:43;12.18;;;9.68;;
14348;SDS011;7258;50.376;8.742;2022-08-05T03:00:08;13.60;;;9.95;;
14348;SDS011;7258;50.376;8.742;2022-08-05T03:02:12;12.05;;;9.93;;
14348;SDS011;7258;50.376;8.742;2022-08-05T03:04:18;12.07;;;10.90;;
14348;SDS011;7258;50.376;8.742;2022-08-05T03:06:24;13.32;;;10.63;;
14348;SDS011;7258;50.376;8.742;2022-08-05T03:08:48;13.25;;;10.13;;
14348;SDS011;7258;50.376;8.742;2022-08-05T03:10:52;13.52;;;9.90;;
14348;SDS011;7258;50.376;8.742;2022-08-05T03:13:16;18.98;;;9.98;;
14348;SDS011;7258;50.376;8.742;2022-08-05T03:15:27;14.57;;;10.82;;
14348;SDS011;7258;50.376;8.742;2022-08-05T03:17:34;15.10;;;10.98;;
14348;SDS011;7258;50.376;8.742;2022-08-05T03:19:42;13.80;;;11.10;;
14348;SDS011;7258;50.376;8.742;2022-08-05T03:21:48;16.15;;;11.82;;
14348;SDS011;7258;50.376;8.742;2022-08-05T03:23:51;13.27;;;11.38;;
14348;SDS011;7258;50.376;8.742;2022-08-05T03:25:56;17.08;;;12.30;;
14348;SDS011;7258;50.376;8.742;2022-08-05T03:28:19;11.70;;;10.07;;
14348;SDS011;7258;50.376;8.742;2022-08-05T03:30:23;10.40;;;9.27;;
14348;SDS011;7258;50.376;8.742;2022-08-05T03:32:34;12.60;;;9.90;;
14348;SDS011;7258;50.376;8.742;2022-08-05T03:34:37;16.73;;;11.55;;
14348;SDS011;7258;50.376;8.742;2022-08-05T03:36:41;15.52;;;11.65;;
14348;SDS011;7258;50.376;8.742;2022-08-05T03:38:45;14.57;;;12.25;;
14348;SDS011;7258;50.376;8.742;2022-08-05T03:40:53;17.55;;;12.48;;
14348;SDS011;7258;50.376;8.742;2022-08-05T03:42:58;16.02;;;13.50;;
14348;SDS011;7258;50.376;8.742;2022-08-05T03:45:21;17.05;;;13.48;;
14348;SDS011;7258;50.376;8.742;2022-08-05T03:47:24;17.75;;;12.70;;
14348;SDS011;7258;50.376;8.742;2022-08-05T03:49:35;20.42;;;12.80;;
14348;SDS011;7258;50.376;8.742;2022-08-05T03:51:54;18.00;;;14.25;;
14348;SDS011;7258;50.376;8.742;2022-08-05T03:54:25;17.73;;;14.85;;
14348;SDS011;7258;50.376;8.742;2022-08-05T03:56:52;21.95;;;15.70;;
14348;SDS011;7258;50.376;8.742;2022-08-05T03:59:00;22.27;;;15.65;;
14348;SDS011;7258;50.376;8.742;2022-08-05T04:01:06;21.50;;;16.20;;
14348;SDS011;7258;50.376;8.742;2022-08-05T04:03:13;20.92;;;15.13;;
14348;SDS011;7258;50.376;8.742;2022-08-05T04:05:30;17.00;;;13.98;;
14348;SDS011;7258;50.376;8.742;2022-08-05T04:07:35;19.83;;;12.68;;
14348;SDS011;7258;50.376;8.742;2022-08-05T04:09:59;13.13;;;10.88;;
14348;SDS011;7258;50.376;8.742;2022-08-05T04:12:03;12.20;;;10.68;;
14348;SDS011;7258;50.376;8.742;2022-08-05T04:14:25;15.05;;;10.18;;
14348;SDS011;7258;50.376;8.742;2022-08-05T04:16:31;14.55;;;9.55;;
14348;SDS011;7258;50.376;8.742;2022-08-05T04:18:36;14.93;;;10.85;;
14348;SDS011;7258;50.376;8.742;2022-08-05T04:20:40;13.48;;;11.10;;
14348;SDS011;7258;50.376;8.742;2022-08-05T04:22:44;18.02;;;13.13;;
14348;SDS011;7258;50.376;8.742;2022-08-05T04:24:49;17.65;;;14.27;;
14348;SDS011;7258;50.376;8.742;2022-08-05T04:26:54;18.80;;;14.35;;
14348;SDS011;7258;50.376;8.742;2022-08-05T04:28:58;16.33;;;12.82;;
14348;SDS011;7258;50.376;8.742;2022-08-05T04:31:07;19.58;;;13.95;;
14348;SDS011;7258;50.376;8.742;2022-08-05T04:33:11;13.27;;;10.90;;
14348;SDS011;7258;50.376;8.742;2022-08-05T04:35:14;17.35;;;11.75;;
14348;SDS011;7258;50.376;8.742;2022-08-05T04:37:20;11.93;;;10.18;;
14348;SDS011;7258;50.376;8.742;2022-08-05T04:39:42;12.48;;;9.63;;
14348;SDS011;7258;50.376;8.742;2022-08-05T04:41:53;15.40;;;9.85;;
14348;SDS011;7258;50.376;8.742;2022-08-05T04:43:57;10.75;;;9.57;;
14348;SDS011;7258;50.376;8.742;2022-08-05T04:46:00;12.32;;;10.10;;
14348;SDS011;7258;50.376;8.742;2022-08-05T04:48:06;13.23;;;10.07;;
14348;SDS011;7258;50.376;8.742;2022-08-05T04:50:27;12.10;;;10.65;;
14348;SDS011;7258;50.376;8.742;2022-08-05T04:52:50;15.35;;;11.98;;
14348;SDS011;7258;50.376;8.742;2022-08-05T04:54:53;16.10;;;12.13;;
14348;SDS011;7258;50.376;8.742;2022-08-05T04:56:59;15.48;;;13.45;;
14348;SDS011;7258;50.376;8.742;2022-08-05T04:59:02;20.73;;;14.70;;
14348;SDS011;7258;50.376;8.742;2022-08-05T05:01:23;18.30;;;14.90;;
14348;SDS011;7258;50.376;8.742;2022-08-05T05:03:46;19.13;;;15.38;;
14348;SDS011;7258;50.376;8.742;2022-08-05T05:05:49;23.08;;;17.00;;
14348;SDS011;7258;50.376;8.742;2022-08-05T05:08:11;22.13;;;17.77;;
14348;SDS011;7258;50.376;8.742;2022-08-05T05:10:31;21.45;;;17.70;;
14348;SDS011;7258;50.376;8.742;2022-08-05T05:12:36;22.33;;;18.80;;
14348;SDS011;7258;50.376;8.742;2022-08-05T05:14:39;22.50;;;17.63;;
14348;SDS011;7258;50.376;8.742;2022-08-05T05:16:49;23.15;;;17.42;;
14348;SDS011;7258;50.376;8.742;2022-08-05T05:18:54;22.10;;;19.23;;
14348;SDS011;7258;50.376;8.742;2022-08-05T05:21:17;20.02;;;17.90;;
14348;SDS011;7258;50.376;8.742;2022-08-05T05:23:27;23.52;;;18.95;;
14348;SDS011;7258;50.376;8.742;2022-08-05T05:25:50;22.88;;;17.80;;
14348;SDS011;7258;50.376;8.742;2022-08-05T05:27:55;27.58;;;19.25;;
14348;SDS011;7258;50.376;8.742;2022-08-05T05:29:58;24.55;;;18.10;;
14348;SDS011;7258;50.376;8.742;2022-08-05T05:32:05;19.65;;;16.77;;
14348;SDS011;7258;50.376;8.742;2022-08-05T05:34:15;22.67;;;17.42;;
14348;SDS011;7258;50.376;8.742;2022-08-05T05:36:27;19.92;;;16.92;;
14348;SDS011;7258;50.376;8.742;2022-08-05T05:38:30;18.17;;;15.95;;
14348;SDS011;7258;50.376;8.742;2022-08-05T05:40:33;17.05;;;15.40;;
14348;SDS011;7258;50.376;8.742;2022-08-05T05:42:36;18.20;;;16.05;;
14348;SDS011;7258;50.376;8.742;2022-08-05T05:44:48;21.48;;;15.65;;
14348;SDS011;7258;50.376;8.742;2022-08-05T05:46:51;16.90;;;14.50;;
14348;SDS011;7258;50.376;8.742;2022-08-05T05:48:56;16.48;;;12.95;;
14348;SDS011;7258;50.376;8.742;2022-08-05T05:51:06;16.48;;;13.07;;
14348;SDS011;7258;50.376;8.742;2022-08-05T05:53:16;17.83;;;13.18;;
14348;SDS011;7258;50.376;8.742;2022-08-05T05:55:23;16.80;;;13.52;;
14348;SDS011;7258;50.376;8.742;2022-08-05T05:57:46;14.80;;;13.30;;
14348;SDS011;7258;50.376;8.742;2022-08-05T05:59:54;15.35;;;13.75;;
14348;SDS011;7258;50.376;8.742;2022-08-05T06:01:57;14.85;;;13.35;;
14348;SDS011;7258;50.376;8.742;2022-08-05T06:04:00;13.80;;;12.38;;
14348;SDS011;7258;50.376;8.742;2022-08-05T06:06:04;12.05;;;10.82;;
14348;SDS011;7258;50.376;8.742;2022-08-05T06:08:07;13.18;;;10.55;;
14348;SDS011;7258;50.376;8.742;2022-08-05T06:10:11;10.85;;;9.68;;
14348;SDS011;7258;50.376;8.742;2022-08-05T06:12:15;11.45;;;10.32;;
14348;SDS011;7258;50.376;8.742;2022-08-05T06:14:19;12.43;;;10.98;;
14348;SDS011;7258;50.376;8.742;2022-08-05T06:16:29;12.43;;;11.20;;
14348;SDS011;7258;50.376;8.742;2022-08-05T06:18:37;11.38;;;10.25;;
14348;SDS011;7258;50.376;8.742;2022-08-05T06:20:40;12.05;;;10.88;;
14348;SDS011;7258;50.376;8.742;2022-08-05T06:22:48;13.00;;;10.73;;
14348;SDS011;7258;50.376;8.742;2022-08-05T06:24:51;11.75;;;10.55;;
14348;SDS011;7258;50.376;8.742;2022-08-05T06:26:54;10.10;;;9.18;;
14348;SDS011;7258;50.376;8.742;2022-08-05T06:28:57;12.65;;;9.32;;
14348;SDS011;7258;50.376;8.742;2022-08-05T06:31:04;10.10;;;8.98;;
14348;SDS011;7258;50.376;8.742;2022-08-05T06:33:19;10.18;;;9.27;;
14348;SDS011;7258;50.376;8.742;2022-08-05T06:35:42;9.77;;;8.85;;
14348;SDS011;7258;50.376;8.742;2022-08-05T06:38:05;11.98;;;9.10;;
14348;SDS011;7258;50.376;8.742;2022-08-05T06:40:12;10.52;;;8.23;;
14348;SDS011;7258;50.376;8.742;2022-08-05T06:42:21;9.45;;;8.57;;
14348;SDS011;7258;50.376;8.742;2022-08-05T06:44:25;13.65;;;8.63;;
14348;SDS011;7258;50.376;8.742;2022-08-05T06:46:28;10.50;;;9.10;;
14348;SDS011;7258;50.376;8.742;2022-08-05T06:48:33;12.43;;;9.55;;
14348;SDS011;7258;50.376;8.742;2022-08-05T06:50:56;12.57;;;8.70;;
14348;SDS011;7258;50.376;8.742;2022-08-05T06:53:02;10.15;;;7.90;;
14348;SDS011;7258;50.376;8.742;2022-08-05T06:55:25;9.05;;;7.70;;
14348;SDS011;7258;50.376;8.742;2022-08-05T06:57:36;9.15;;;7.45;;
14348;SDS011;7258;50.376;8.742;2022-08-05T06:59:59;6.90;;;6.30;;
14348;SDS011;7258;50.376;8.742;2022-08-05T07:02:05;7.95;;;6.55;;
14348;SDS011;7258;50.376;8.742;2022-08-05T07:04:10;7.90;;;7.07;;
14348;SDS011;7258;50.376;8.742;2022-08-05T07:06:14;7.32;;;6.63;;
14348;SDS011;7258;50.376;8.742;2022-08-05T07:08:20;7.65;;;6.90;;
14348;SDS011;7258;50.376;8.742;2022-08-05T07:10:25;7.32;;;6.63;;
14348;SDS011;7258;50.376;8.742;2022-08-05T07:12:33;10.48;;;6.88;;
14348;SDS011;7258;50.376;8.742;2022-08-05T07:14:56;9.85;;;7.20;;
14348;SDS011;7258;50.376;8.742;2022-08-05T07:17:36;7.20;;;6.40;;
14348;SDS011;7258;50.376;8.742;2022-08-05T07:20:01;7.00;;;6.32;;
14348;SDS011;7258;50.376;8.742;2022-08-05T07:22:24;6.45;;;5.82;;
14348;SDS011;7258;50.376;8.742;2022-08-05T07:24:30;6.38;;;5.57;;
14348;SDS011;7258;50.376;8.742;2022-08-05T07:26:52;9.38;;;6.20;;
14348;SDS011;7258;50.376;8.742;2022-08-05T07:28:55;6.53;;;5.85;;
14348;SDS011;7258;50.376;8.742;2022-08-05T07:31:00;8.85;;;6.55;;
14348;SDS011;7258;50.376;8.742;2022-08-05T07:33:03;7.10;;;6.40;;
14348;SDS011;7258;50.376;8.742;2022-08-05T07:35:11;9.38;;;6.80;;
14348;SDS011;7258;50.376;8.742;2022-08-05T07:37:35;8.15;;;6.72;;
14348;SDS011;7258;50.376;8.742;2022-08-05T07:39:39;7.07;;;6.38;;
14348;SDS011;7258;50.376;8.742;2022-08-05T07:42:02;8.52;;;7.65;;
14348;SDS011;7258;50.376;8.742;2022-08-05T07:44:15;7.82;;;7.13;;
14348;SDS011;7258;50.376;8.742;2022-08-05T07:46:19;8.80;;;7.90;;
14348;SDS011;7258;50.376;8.742;2022-08-05T07:48:26;8.60;;;7.75;;
14348;SDS011;7258;50.376;8.742;2022-08-05T07:50:50;8.57;;;7.68;;
14348;SDS011;7258;50.376;8.742;2022-08-05T07:52:53;9.88;;;7.45;;
14348;SDS011;7258;50.376;8.742;2022-08-05T07:54:56;8.98;;;7.78;;
14348;SDS011;7258;50.376;8.742;2022-08-05T07:57:00;9.60;;;7.63;;
14348;SDS011;7258;50.376;8.742;2022-08-05T07:59:23;9.20;;;7.80;;
14348;SDS011;7258;50.376;8.742;2022-08-05T08:01:40;11.07;;;8.00;;
14348;SDS011;7258;50.376;8.742;2022-08-05T08:03:57;9.02;;;8.23;;
14348;SDS011;7258;50.376;8.742;2022-08-05T08:06:03;10.88;;;7.97;;
14348;SDS011;7258;50.376;8.742;2022-08-05T08:08:10;9.18;;;8.43;;
14348;SDS011;7258;50.376;8.742;2022-08-05T08:10:15;10.70;;;8.50;;
14348;SDS011;7258;50.376;8.742;2022-08-05T08:12:21;10.25;;;9.25;;
14348;SDS011;7258;50.376;8.742;2022-08-05T08:14:45;8.82;;;8.00;;
14348;SDS011;7258;50.376;8.742;2022-08-05T08:16:48;8.43;;;7.60;;
14348;SDS011;7258;50.376;8.742;2022-08-05T08:18:53;7.82;;;7.03;;
14348;SDS011;7258;50.376;8.742;2022-08-05T08:20:58;9.82;;;7.38;;
14348;SDS011;7258;50.376;8.742;2022-08-05T08:23:05;9.55;;;7.65;;
14348;SDS011;7258;50.376;8.742;2022-08-05T08:25:28;12.25;;;6.70;;
14348;SDS011;7258;50.376;8.742;2022-08-05T08:27:52;8.02;;;7.07;;
14348;SDS011;7258;50.376;8.742;2022-08-05T08:29:56;9.13;;;6.60;;
14348;SDS011;7258;50.376;8.742;2022-08-05T08:32:20;6.88;;;6.18;;
14348;SDS011;7258;50.376;8.742;2022-08-05T08:34:28;9.73;;;6.45;;
14348;SDS011;7258;50.376;8.742;2022-08-05T08:36:33;7.25;;;6.22;;
14348;SDS011;7258;50.376;8.742;2022-08-05T08:38:54;7.13;;;6.45;;
14348;SDS011;7258;50.376;8.742;2022-08-05T08:40:57;6.97;;;6.28;;
14348;SDS011;7258;50.376;8.742;2022-08-05T08:43:05;8.40;;;6.90;;
14348;SDS011;7258;50.376;8.742;2022-08-05T08:45:29;8.35;;;6.75;;
14348;SDS011;7258;50.376;8.742;2022-08-05T08:47:32;8.65;;;7.80;;
14348;SDS011;7258;50.376;8.742;2022-08-05T08:49:57;7.70;;;6.75;;
14348;SDS011;7258;50.376;8.742;2022-08-05T08:52:22;7.93;;;6.97;;
14348;SDS011;7258;50.376;8.742;2022-08-05T08:54:28;10.32;;;7.07;;
14348;SDS011;7258;50.376;8.742;2022-08-05T08:56:32;8.10;;;6.45;;
14348;SDS011;7258;50.376;8.742;2022-08-05T08:58:48;7.78;;;6.85;;
14348;SDS011;7258;50.376;8.742;2022-08-05T09:00:51;7.65;;;6.53;;
14348;SDS011;7258;50.376;8.742;2022-08-05T09:02:55;10.00;;;6.68;;
14348;SDS011;7258;50.376;8.742;2022-08-05T09:04:59;7.93;;;7.13;;
14348;SDS011;7258;50.376;8.742;2022-08-05T09:07:18;8.35;;;6.88;;
14348;SDS011;7258;50.376;8.742;2022-08-05T09:09:31;7.68;;;6.18;;
14348;SDS011;7258;50.376;8.742;2022-08-05T09:11:36;7.03;;;6.28;;
14348;SDS011;7258;50.376;8.742;2022-08-05T09:13:55;7.43;;;6.40;;
14348;SDS011;7258;50.376;8.742;2022-08-05T09:16:18;6.90;;;5.78;;
14348;SDS011;7258;50.376;8.742;2022-08-05T09:18:27;5.00;;;4.50;;
14348;SDS011;7258;50.376;8.742;2022-08-05T09:20:30;4.43;;;3.13;;
14348;SDS011;7258;50.376;8.742;2022-08-05T09:25:16;7.55;;;2.90;;
14348;SDS011;7258;50.376;8.742;2022-08-05T09:27:41;3.40;;;2.30;;
14348;SDS011;7258;50.376;8.742;2022-08-05T09:30:04;3.30;;;2.50;;
14348;SDS011;7258;50.376;8.742;2022-08-05T09:32:16;3.85;;;2.22;;
14348;SDS011;7258;50.376;8.742;2022-08-05T09:34:46;2.85;;;2.40;;
14348;SDS011;7258;50.376;8.742;2022-08-05T09:36:51;2.88;;;2.55;;
14348;SDS011;7258;50.376;8.742;2022-08-05T09:39:01;4.90;;;2.80;;
14348;SDS011;7258;50.376;8.742;2022-08-05T09:41:19;2.95;;;2.58;;
14348;SDS011;7258;50.376;8.742;2022-08-05T09:43:26;4.53;;;2.60;;
14348;SDS011;7258;50.376;8.742;2022-08-05T09:45:42;3.30;;;2.42;;
14348;SDS011;7258;50.376;8.742;2022-08-05T09:48:17;2.78;;;2.38;;
14348;SDS011;7258;50.376;8.742;2022-08-05T09:50:21;4.25;;;2.80;;
14348;SDS011;7258;50.376;8.742;2022-08-05T09:52:43;4.03;;;2.63;;
14348;SDS011;7258;50.376;8.742;2022-08-05T09:54:55;4.30;;;2.88;;
14348;SDS011;7258;50.376;8.742;2022-08-05T09:57:32;3.08;;;2.65;;
14348;SDS011;7258;50.376;8.742;2022-08-05T09:59:46;2.70;;;2.47;;
14348;SDS011;7258;50.376;8.742;2022-08-05T10:01:49;3.85;;;2.60;;
14348;SDS011;7258;50.376;8.742;2022-08-05T10:03:59;3.00;;;2.70;;
14348;SDS011;7258;50.376;8.742;2022-08-05T10:06:11;3.08;;;2.78;;
14348;SDS011;7258;50.376;8.742;2022-08-05T10:08:16;2.85;;;2.53;;
14348;SDS011;7258;50.376;8.742;2022-08-05T10:10:44;5.00;;;2.60;;
14348;SDS011;7258;50.376;8.742;2022-08-05T10:12:57;6.63;;;2.53;;
14348;SDS011;7258;50.376;8.742;2022-08-05T10:15:14;4.68;;;2.80;;
14348;SDS011;7258;50.376;8.742;2022-08-05T10:17:21;3.25;;;2.53;;
14348;SDS011;7258;50.376;8.742;2022-08-05T10:19:40;2.65;;;2.45;;
14348;SDS011;7258;50.376;8.742;2022-08-05T10:22:03;3.28;;;3.05;;
14348;SDS011;7258;50.376;8.742;2022-08-05T10:24:09;3.83;;;2.70;;
14348;SDS011;7258;50.376;8.742;2022-08-05T10:26:15;3.58;;;2.90;;
14348;SDS011;7258;50.376;8.742;2022-08-05T10:28:20;3.17;;;2.88;;
14348;SDS011;7258;50.376;8.742;2022-08-05T10:30:30;3.13;;;2.80;;
14348;SDS011;7258;50.376;8.742;2022-08-05T10:32:55;4.55;;;2.70;;
14348;SDS011;7258;50.376;8.742;2022-08-05T10:35:03;3.88;;;2.90;;
14348;SDS011;7258;50.376;8.742;2022-08-05T10:37:07;3.10;;;2.90;;
14348;SDS011;7258;50.376;8.742;2022-08-05T10:39:16;5.00;;;2.90;;
14348;SDS011;7258;50.376;8.742;2022-08-05T10:41:42;3.78;;;3.03;;
14348;SDS011;7258;50.376;8.742;2022-08-05T10:43:52;3.30;;;3.00;;
14348;SDS011;7258;50.376;8.742;2022-08-05T10:46:00;3.90;;;3.05;;
14348;SDS011;7258;50.376;8.742;2022-08-05T10:50:56;3.65;;;3.33;;
14348;SDS011;7258;50.376;8.742;2022-08-05T10:53:00;4.03;;;2.85;;
14348;SDS011;7258;50.376;8.742;2022-08-05T10:55:05;3.40;;;2.90;;
14348;SDS011;7258;50.376;8.742;2022-08-05T10:57:10;3.28;;;2.97;;
14348;SDS011;7258;50.376;8.742;2022-08-05T10:59:16;5.22;;;3.30;;
14348;SDS011;7258;50.376;8.742;2022-08-05T11:01:41;3.50;;;2.65;;
14348;SDS011;7258;50.376;8.742;2022-08-05T11:04:07;3.22;;;2.95;;
14348;SDS011;7258;50.376;8.742;2022-08-05T11:06:13;3.50;;;3.20;;
14348;SDS011;7258;50.376;8.742;2022-08-05T11:08:18;3.90;;;2.90;;
14348;SDS011;7258;50.376;8.742;2022-08-05T11:10:37;3.10;;;2.80;;
14348;SDS011;7258;50.376;8.742;2022-08-05T11:13:01;2.80;;;2.60;;
14348;SDS011;7258;50.376;8.742;2022-08-05T11:15:08;3.90;;;3.13;;
14348;SDS011;7258;50.376;8.742;2022-08-05T11:17:23;4.72;;;3.28;;
14348;SDS011;7258;50.376;8.742;2022-08-05T11:19:55;4.70;;;3.10;;
14348;SDS011;7258;50.376;8.742;2022-08-05T11:24:42;6.10;;;3.42;;
14348;SDS011;7258;50.376;8.742;2022-08-05T11:29:57;3.78;;;3.40;;
14348;SDS011;7258;50.376;8.742;2022-08-05T11:34:34;5.07;;;3.50;;
14348;SDS011;7258;50.376;8.742;2022-08-05T11:36:42;3.83;;;3.22;;
14348;SDS011;7258;50.376;8.742;2022-08-05T11:38:53;7.32;;;3.22;;
14348;SDS011;7258;50.376;8.742;2022-08-05T11:40:59;4.55;;;3.60;;
14348;SDS011;7258;50.376;8.742;2022-08-05T11:43:23;4.03;;;3.50;;
14348;SDS011;7258;50.376;8.742;2022-08-05T11:45:46;4.93;;;3.55;;
14348;SDS011;7258;50.376;8.742;2022-08-05T11:48:11;4.65;;;3.63;;
14348;SDS011;7258;50.376;8.742;2022-08-05T11:50:14;4.30;;;3.83;;
14348;SDS011;7258;50.376;8.742;2022-08-05T11:52:21;4.70;;;4.13;;
14348;SDS011;7258;50.376;8.742;2022-08-05T11:54:30;5.22;;;4.35;;
14348;SDS011;7258;50.376;8.742;2022-08-05T11:56:42;6.18;;;4.75;;
14348;SDS011;7258;50.376;8.742;2022-08-05T11:58:50;5.10;;;4.60;;
14348;SDS011;7258;50.376;8.742;2022-08-05T12:00:59;6.20;;;4.18;;
14348;SDS011;7258;50.376;8.742;2022-08-05T12:03:16;5.15;;;4.75;;
14348;SDS011;7258;50.376;8.742;2022-08-05T12:05:30;5.60;;;5.15;;
14348;SDS011;7258;50.376;8.742;2022-08-05T12:07:40;5.25;;;4.78;;
14348;SDS011;7258;50.376;8.742;2022-08-05T12:10:04;7.05;;;4.82;;
14348;SDS011;7258;50.376;8.742;2022-08-05T12:12:12;5.03;;;4.53;;
14348;SDS011;7258;50.376;8.742;2022-08-05T12:14:34;5.22;;;4.82;;
14348;SDS011;7258;50.376;8.742;2022-08-05T12:16:38;5.28;;;4.85;;
14348;SDS011;7258;50.376;8.742;2022-08-05T12:18:48;5.82;;;5.40;;
14348;SDS011;7258;50.376;8.742;2022-08-05T12:20:53;6.70;;;6.10;;
14348;SDS011;7258;50.376;8.742;2022-08-05T12:23:06;7.57;;;6.97;;
14348;SDS011;7258;50.376;8.742;2022-08-05T12:25:09;7.10;;;6.60;;
14348;SDS011;7258;50.376;8.742;2022-08-05T12:27:18;8.43;;;7.72;;
14348;SDS011;7258;50.376;8.742;2022-08-05T12:29:26;9.18;;;8.48;;
14348;SDS011;7258;50.376;8.742;2022-08-05T12:31:39;9.55;;;8.77;;
14348;SDS011;7258;50.376;8.742;2022-08-05T12:33:54;9.35;;;8.45;;
14348;SDS011;7258;50.376;8.742;2022-08-05T12:35:59;8.48;;;7.70;;
14348;SDS011;7258;50.376;8.742;2022-08-05T12:38:03;7.95;;;7.20;;
14348;SDS011;7258;50.376;8.742;2022-08-05T12:40:10;9.02;;;8.30;;
14348;SDS011;7258;50.376;8.742;2022-08-05T12:42:27;7.82;;;7.13;;
14348;SDS011;7258;50.376;8.742;2022-08-05T12:44:32;7.15;;;6.57;;
14348;SDS011;7258;50.376;8.742;2022-08-05T12:46:39;6.35;;;5.85;;
14348;SDS011;7258;50.376;8.742;2022-08-05T12:48:46;6.55;;;6.10;;
14348;SDS011;7258;50.376;8.742;2022-08-05T12:51:10;6.10;;;5.70;;
14348;SDS011;7258;50.376;8.742;2022-08-05T12:53:39;5.75;;;5.25;;
14348;SDS011;7258;50.376;8.742;2022-08-05T12:55:47;6.22;;;5.60;;
14348;SDS011;7258;50.376;8.742;2022-08-05T12:57:50;6.10;;;5.65;;
14348;SDS011;7258;50.376;8.742;2022-08-05T13:00:18;6.25;;;5.65;;
14348;SDS011;7258;50.376;8.742;2022-08-05T13:02:42;5.50;;;5.10;;
14348;SDS011;7258;50.376;8.742;2022-08-05T13:04:55;6.00;;;5.50;;
14348;SDS011;7258;50.376;8.742;2022-08-05T13:07:01;5.70;;;5.20;;
14348;SDS011;7258;50.376;8.742;2022-08-05T13:09:11;5.25;;;4.90;;
14348;SDS011;7258;50.376;8.742;2022-08-05T13:11:28;5.80;;;5.30;;
14348;SDS011;7258;50.376;8.742;2022-08-05T13:13:52;5.00;;;4.60;;
14348;SDS011;7258;50.376;8.742;2022-08-05T13:16:10;5.15;;;4.85;;
14348;SDS011;7258;50.376;8.742;2022-08-05T13:18:15;5.35;;;4.95;;
14348;SDS011;7258;50.376;8.742;2022-08-05T13:20:20;5.55;;;5.05;;
14348;SDS011;7258;50.376;8.742;2022-08-05T13:22:29;4.97;;;4.63;;
14348;SDS011;7258;50.376;8.742;2022-08-05T13:24:36;5.22;;;4.82;;
14348;SDS011;7258;50.376;8.742;2022-08-05T13:26:58;5.80;;;5.40;;